sensor_id;sensor_type;location;lat;lon;timestamp;pressure;altitude;pressure_sealevel;temperature;humidity
54808;BME280;40708;50.364;7.550;2023-07-28T00:01:55;102599.63;;;16.74;100.00
54808;BME280;40708;50.364;7.550;2023-07-28T00:04:21;102618.41;;;16.76;100.00
54808;BME280;40708;50.364;7.550;2023-07-28T00:06:46;102626.44;;;16.76;100.00
54808;BME280;40708;50.364;7.550;2023-07-28T00:09:11;102631.81;;;16.76;100.00
54808;BME280;40708;50.364;7.550;2023-07-28T00:11:37;102636.31;;;16.77;100.00
54808;BME280;40708;50.364;7.550;2023-07-28T00:14:02;102638.06;;;16.78;100.00
54808;BME280;40708;50.364;7.550;2023-07-28T00:16:28;102647.94;;;16.79;100.00
54808;BME280;40708;50.364;7.550;2023-07-28T00:18:53;102649.75;;;16.81;100.00
54808;BME280;40708;50.364;7.550;2023-07-28T00:21:18;102656.88;;;16.79;100.00
54808;BME280;40708;50.364;7.550;2023-07-28T00:23:43;102664.94;;;16.81;100.00
54808;BME280;40708;50.364;7.550;2023-07-28T00:26:09;102673.88;;;16.81;100.00
54808;BME280;40708;50.364;7.550;2023-07-28T00:28:34;102678.31;;;16.81;100.00
54808;BME280;40708;50.364;7.550;2023-07-28T00:30:59;102688.19;;;16.82;100.00
54808;BME280;40708;50.364;7.550;2023-07-28T00:33:24;102689.97;;;16.83;100.00
54808;BME280;40708;50.364;7.550;2023-07-28T00:35:50;102689.09;;;16.82;100.00
54808;BME280;40708;50.364;7.550;2023-07-28T00:38:15;102694.41;;;16.81;100.00
54808;BME280;40708;50.364;7.550;2023-07-28T00:40:40;102685.50;;;16.82;100.00
54808;BME280;40708;50.364;7.550;2023-07-28T00:43:06;102685.47;;;16.79;100.00
54808;BME280;40708;50.364;7.550;2023-07-28T00:45:33;102706.00;;;16.80;100.00
54808;BME280;40708;50.364;7.550;2023-07-28T00:47:58;102702.47;;;16.81;100.00
54808;BME280;40708;50.364;7.550;2023-07-28T00:50:24;102698.03;;;16.84;100.00
54808;BME280;40708;50.364;7.550;2023-07-28T00:52:50;102703.47;;;16.92;100.00
54808;BME280;40708;50.364;7.550;2023-07-28T00:55:16;102694.53;;;16.91;100.00
54808;BME280;40708;50.364;7.550;2023-07-28T00:57:41;102687.38;;;16.90;100.00
54808;BME280;40708;50.364;7.550;2023-07-28T01:00:07;102688.25;;;16.89;100.00
54808;BME280;40708;50.364;7.550;2023-07-28T01:02:33;102687.38;;;16.90;100.00
54808;BME280;40708;50.364;7.550;2023-07-28T01:04:59;102677.53;;;16.91;100.00
54808;BME280;40708;50.364;7.550;2023-07-28T01:07:41;102675.78;;;16.93;100.00
54808;BME280;40708;50.364;7.550;2023-07-28T01:12:36;102677.56;;;16.94;100.00
54808;BME280;40708;50.364;7.550;2023-07-28T01:15:01;102676.66;;;16.92;100.00
54808;BME280;40708;50.364;7.550;2023-07-28T01:17:27;102681.16;;;16.93;100.00
54808;BME280;40708;50.364;7.550;2023-07-28T01:19:52;102686.50;;;16.93;100.00
54808;BME280;40708;50.364;7.550;2023-07-28T01:22:46;102687.38;;;16.93;100.00
54808;BME280;40708;50.364;7.550;2023-07-28T01:25:48;102684.69;;;16.93;100.00
54808;BME280;40708;50.364;7.550;2023-07-28T01:28:15;102697.25;;;16.93;100.00
54808;BME280;40708;50.364;7.550;2023-07-28T01:30:42;102700.78;;;16.93;100.00
54808;BME280;40708;50.364;7.550;2023-07-28T01:33:07;102698.16;;;16.95;100.00
54808;BME280;40708;50.364;7.550;2023-07-28T01:35:35;102696.38;;;16.95;100.00
54808;BME280;40708;50.364;7.550;2023-07-28T01:38:01;102696.38;;;16.97;100.00
54808;BME280;40708;50.364;7.550;2023-07-28T01:40:26;102691.91;;;16.97;100.00
54808;BME280;40708;50.364;7.550;2023-07-28T01:42:51;102698.16;;;16.96;100.00
54808;BME280;40708;50.364;7.550;2023-07-28T01:45:16;102713.34;;;16.97;100.00
54808;BME280;40708;50.364;7.550;2023-07-28T01:47:42;102716.94;;;16.98;100.00
54808;BME280;40708;50.364;7.550;2023-07-28T01:50:07;102720.53;;;17.00;100.00
54808;BME280;40708;50.364;7.550;2023-07-28T01:52:32;102713.41;;;17.00;100.00
54808;BME280;40708;50.364;7.550;2023-07-28T01:54:58;102713.41;;;17.00;100.00
54808;BME280;40708;50.364;7.550;2023-07-28T01:57:23;102711.63;;;17.02;100.00
54808;BME280;40708;50.364;7.550;2023-07-28T01:59:52;102709.84;;;17.03;100.00
54808;BME280;40708;50.364;7.550;2023-07-28T02:02:17;102710.75;;;17.03;100.00
54808;BME280;40708;50.364;7.550;2023-07-28T02:04:43;102723.28;;;17.06;100.00
54808;BME280;40708;50.364;7.550;2023-07-28T02:07:08;102734.03;;;17.07;100.00
54808;BME280;40708;50.364;7.550;2023-07-28T02:09:33;102720.63;;;17.09;100.00
54808;BME280;40708;50.364;7.550;2023-07-28T02:11:58;102715.28;;;17.09;100.00
54808;BME280;40708;50.364;7.550;2023-07-28T02:14:24;102705.44;;;17.12;100.00
54808;BME280;40708;50.364;7.550;2023-07-28T02:16:49;102698.28;;;17.10;100.00
54808;BME280;40708;50.364;7.550;2023-07-28T02:19:14;102687.53;;;17.10;100.00
54808;BME280;40708;50.364;7.550;2023-07-28T02:21:40;102690.22;;;17.08;100.00
54808;BME280;40708;50.364;7.550;2023-07-28T02:24:05;102680.41;;;17.09;100.00
54808;BME280;40708;50.364;7.550;2023-07-28T02:26:30;102685.78;;;17.10;100.00
54808;BME280;40708;50.364;7.550;2023-07-28T02:28:56;102681.28;;;17.09;100.00
54808;BME280;40708;50.364;7.550;2023-07-28T02:31:21;102663.41;;;17.08;100.00
54808;BME280;40708;50.364;7.550;2023-07-28T02:33:46;102656.25;;;17.09;100.00
54808;BME280;40708;50.364;7.550;2023-07-28T02:36:11;102643.72;;;17.08;100.00
54808;BME280;40708;50.364;7.550;2023-07-28T02:38:37;102641.03;;;17.09;100.00
54808;BME280;40708;50.364;7.550;2023-07-28T02:41:02;102639.25;;;17.10;100.00
54808;BME280;40708;50.364;7.550;2023-07-28T02:43:29;102642.84;;;17.09;100.00
54808;BME280;40708;50.364;7.550;2023-07-28T02:45:56;102652.72;;;17.13;100.00
54808;BME280;40708;50.364;7.550;2023-07-28T02:48:21;102640.19;;;17.13;100.00
54808;BME280;40708;50.364;7.550;2023-07-28T02:50:49;102625.00;;;17.14;100.00
54808;BME280;40708;50.364;7.550;2023-07-28T02:53:15;102630.41;;;17.17;100.00
54808;BME280;40708;50.364;7.550;2023-07-28T02:55:44;102622.34;;;17.17;100.00
54808;BME280;40708;50.364;7.550;2023-07-28T02:58:10;102625.00;;;17.15;100.00
54808;BME280;40708;50.364;7.550;2023-07-28T03:00:40;102612.50;;;17.14;100.00
54808;BME280;40708;50.364;7.550;2023-07-28T03:03:06;102606.25;;;17.17;100.00
54808;BME280;40708;50.364;7.550;2023-07-28T03:05:32;102601.78;;;17.17;100.00
54808;BME280;40708;50.364;7.550;2023-07-28T03:07:57;102605.41;;;17.22;100.00
54808;BME280;40708;50.364;7.550;2023-07-28T03:10:22;102596.44;;;17.23;100.00
54808;BME280;40708;50.364;7.550;2023-07-28T03:12:48;102592.00;;;17.24;100.00
54808;BME280;40708;50.364;7.550;2023-07-28T03:15:13;102591.09;;;17.22;100.00
54808;BME280;40708;50.364;7.550;2023-07-28T03:17:38;102578.53;;;17.21;100.00
54808;BME280;40708;50.364;7.550;2023-07-28T03:20:04;102560.69;;;17.20;100.00
54808;BME280;40708;50.364;7.550;2023-07-28T03:22:30;102555.28;;;17.18;100.00
54808;BME280;40708;50.364;7.550;2023-07-28T03:24:56;102550.81;;;17.16;100.00
54808;BME280;40708;50.364;7.550;2023-07-28T03:27:21;102552.56;;;17.15;100.00
54808;BME280;40708;50.364;7.550;2023-07-28T03:29:46;102550.81;;;17.16;100.00
54808;BME280;40708;50.364;7.550;2023-07-28T03:32:11;102544.53;;;17.15;100.00
54808;BME280;40708;50.364;7.550;2023-07-28T03:34:37;102542.75;;;17.14;100.00
54808;BME280;40708;50.364;7.550;2023-07-28T03:37:02;102536.50;;;17.14;100.00
54808;BME280;40708;50.364;7.550;2023-07-28T03:39:28;102549.00;;;17.15;100.00
54808;BME280;40708;50.364;7.550;2023-07-28T03:41:54;102550.81;;;17.14;100.00
54808;BME280;40708;50.364;7.550;2023-07-28T03:44:20;102554.38;;;17.12;100.00
54808;BME280;40708;50.364;7.550;2023-07-28T03:46:45;102557.03;;;17.13;100.00
54808;BME280;40708;50.364;7.550;2023-07-28T03:49:11;102558.81;;;17.11;100.00
54808;BME280;40708;50.364;7.550;2023-07-28T03:51:36;102562.41;;;17.15;100.00
54808;BME280;40708;50.364;7.550;2023-07-28T03:54:01;102570.47;;;17.16;100.00
54808;BME280;40708;50.364;7.550;2023-07-28T03:56:27;102581.22;;;17.18;100.00
54808;BME280;40708;50.364;7.550;2023-07-28T03:58:53;102584.81;;;17.20;100.00
54808;BME280;40708;50.364;7.550;2023-07-28T04:01:19;102589.28;;;17.21;100.00
54808;BME280;40708;50.364;7.550;2023-07-28T04:03:46;102592.00;;;17.24;100.00
54808;BME280;40708;50.364;7.550;2023-07-28T04:06:12;102593.78;;;17.25;100.00
54808;BME280;40708;50.364;7.550;2023-07-28T04:08:37;102600.06;;;17.25;100.00
54808;BME280;40708;50.364;7.550;2023-07-28T04:11:02;102602.75;;;17.27;100.00
54808;BME280;40708;50.364;7.550;2023-07-28T04:13:28;102605.44;;;17.30;100.00
54808;BME280;40708;50.364;7.550;2023-07-28T04:15:53;102609.06;;;17.34;100.00
54808;BME280;40708;50.364;7.550;2023-07-28T04:18:19;102609.06;;;17.34;100.00
54808;BME280;40708;50.364;7.550;2023-07-28T04:20:45;102600.09;;;17.35;100.00
54808;BME280;40708;50.364;7.550;2023-07-28T04:23:11;102603.69;;;17.37;100.00
54808;BME280;40708;50.364;7.550;2023-07-28T04:25:36;102605.50;;;17.38;100.00
54808;BME280;40708;50.364;7.550;2023-07-28T04:28:01;102600.16;;;17.42;100.00
54808;BME280;40708;50.364;7.550;2023-07-28T04:30:27;102588.53;;;17.43;100.00
54808;BME280;40708;50.364;7.550;2023-07-28T04:32:52;102590.34;;;17.46;100.00
54808;BME280;40708;50.364;7.550;2023-07-28T04:35:17;102585.00;;;17.49;100.00
54808;BME280;40708;50.364;7.550;2023-07-28T04:37:42;102576.06;;;17.51;100.00
54808;BME280;40708;50.364;7.550;2023-07-28T04:40:09;102568.03;;;17.53;100.00
54808;BME280;40708;50.364;7.550;2023-07-28T04:42:34;102557.31;;;17.53;100.00
54808;BME280;40708;50.364;7.550;2023-07-28T04:45:01;102558.22;;;17.56;100.00
54808;BME280;40708;50.364;7.550;2023-07-28T04:47:26;102549.28;;;17.57;100.00
54808;BME280;40708;50.364;7.550;2023-07-28T04:49:51;102539.47;;;17.62;100.00
54808;BME280;40708;50.364;7.550;2023-07-28T04:52:17;102531.41;;;17.62;100.00
54808;BME280;40708;50.364;7.550;2023-07-28T04:54:42;102510.84;;;17.64;100.00
54808;BME280;40708;50.364;7.550;2023-07-28T04:57:07;102508.19;;;17.66;100.00
54808;BME280;40708;50.364;7.550;2023-07-28T04:59:32;102506.41;;;17.72;100.00
54808;BME280;40708;50.364;7.550;2023-07-28T05:01:58;102485.81;;;17.70;100.00
54808;BME280;40708;50.364;7.550;2023-07-28T05:04:23;102482.22;;;17.72;100.00
54808;BME280;40708;50.364;7.550;2023-07-28T05:06:48;102467.03;;;17.76;100.00
54808;BME280;40708;50.364;7.550;2023-07-28T05:09:14;102452.72;;;17.77;100.00
54808;BME280;40708;50.364;7.550;2023-07-28T05:11:39;102430.31;;;17.75;100.00
54808;BME280;40708;50.364;7.550;2023-07-28T05:14:04;102428.53;;;17.75;100.00
54808;BME280;40708;50.364;7.550;2023-07-28T05:16:31;102408.84;;;17.73;100.00
54808;BME280;40708;50.364;7.550;2023-07-28T05:18:57;102402.63;;;17.74;100.00
54808;BME280;40708;50.364;7.550;2023-07-28T05:21:22;102393.66;;;17.74;100.00
54808;BME280;40708;50.364;7.550;2023-07-28T05:23:47;102384.72;;;17.76;100.00
54808;BME280;40708;50.364;7.550;2023-07-28T05:26:12;102374.88;;;17.80;100.00
54808;BME280;40708;50.364;7.550;2023-07-28T05:28:38;102354.28;;;17.82;100.00
54808;BME280;40708;50.364;7.550;2023-07-28T05:31:04;102359.66;;;17.87;100.00
54808;BME280;40708;50.364;7.550;2023-07-28T05:33:30;102339.97;;;17.91;100.00
54808;BME280;40708;50.364;7.550;2023-07-28T05:36:05;102329.22;;;17.95;100.00
54808;BME280;40708;50.364;7.550;2023-07-28T05:38:30;102308.63;;;17.96;100.00
54808;BME280;40708;50.364;7.550;2023-07-28T05:41:00;102305.06;;;17.98;100.00
54808;BME280;40708;50.364;7.550;2023-07-28T05:43:32;102282.66;;;18.02;100.00
54808;BME280;40708;50.364;7.550;2023-07-28T05:45:59;102267.44;;;18.01;100.00
54808;BME280;40708;50.364;7.550;2023-07-28T05:48:24;102256.69;;;18.07;100.00
54808;BME280;40708;50.364;7.550;2023-07-28T05:50:50;102245.94;;;18.12;100.00
54808;BME280;40708;50.364;7.550;2023-07-28T05:53:17;102217.28;;;18.14;100.00
54808;BME280;40708;50.364;7.550;2023-07-28T05:55:42;102206.53;;;18.15;100.00
54808;BME280;40708;50.364;7.550;2023-07-28T05:58:08;102187.72;;;18.20;100.00
54808;BME280;40708;50.364;7.550;2023-07-28T06:00:33;102178.72;;;18.24;100.00
54808;BME280;40708;50.364;7.550;2023-07-28T06:02:58;102150.09;;;18.26;100.00
54808;BME280;40708;50.364;7.550;2023-07-28T06:05:24;102143.78;;;18.28;100.00
54808;BME280;40708;50.364;7.550;2023-07-28T06:07:49;102146.44;;;18.34;100.00
54808;BME280;40708;50.364;7.550;2023-07-28T06:10:14;102132.06;;;18.40;100.00
54808;BME280;40708;50.364;7.550;2023-07-28T06:12:40;102104.28;;;18.47;100.00
54808;BME280;40708;50.364;7.550;2023-07-28T06:15:05;102091.75;;;18.52;100.00
54808;BME280;40708;50.364;7.550;2023-07-28T06:17:31;102061.22;;;18.59;100.00
54808;BME280;40708;50.364;7.550;2023-07-28T06:19:56;102048.66;;;18.63;100.00
54808;BME280;40708;50.364;7.550;2023-07-28T06:22:22;102016.34;;;18.72;100.00
54808;BME280;40708;50.364;7.550;2023-07-28T06:24:48;101966.06;;;18.78;100.00
54808;BME280;40708;50.364;7.550;2023-07-28T06:27:13;101927.44;;;18.88;100.00
54808;BME280;40708;50.364;7.550;2023-07-28T06:29:38;101904.81;;;19.06;100.00
54808;BME280;40708;50.364;7.550;2023-07-28T06:32:04;101859.81;;;19.19;100.00
54808;BME280;40708;50.364;7.550;2023-07-28T06:34:29;101813.03;;;19.32;100.00
54808;BME280;40708;50.364;7.550;2023-07-28T06:36:55;101760.00;;;19.40;100.00
54808;BME280;40708;50.364;7.550;2023-07-28T06:39:20;101707.00;;;19.45;100.00
54808;BME280;40708;50.364;7.550;2023-07-28T06:41:45;101648.72;;;19.41;100.00
54808;BME280;40708;50.364;7.550;2023-07-28T06:44:10;101612.94;;;19.34;100.00
54808;BME280;40708;50.364;7.550;2023-07-28T06:46:36;101594.97;;;19.38;100.00
54808;BME280;40708;50.364;7.550;2023-07-28T06:49:01;101611.75;;;19.52;100.00
54808;BME280;40708;50.364;7.550;2023-07-28T06:51:26;101575.13;;;19.45;100.00
54808;BME280;40708;50.364;7.550;2023-07-28T06:53:51;101534.75;;;19.43;100.00
54808;BME280;40708;50.364;7.550;2023-07-28T06:56:17;101527.56;;;19.45;100.00
54808;BME280;40708;50.364;7.550;2023-07-28T06:58:42;101530.16;;;19.50;100.00
54808;BME280;40708;50.364;7.550;2023-07-28T07:01:07;101510.56;;;19.42;100.00
54808;BME280;40708;50.364;7.550;2023-07-28T07:03:36;101496.97;;;19.49;100.00
54808;BME280;40708;50.364;7.550;2023-07-28T07:06:02;101488.66;;;19.62;100.00
54808;BME280;40708;50.364;7.550;2023-07-28T07:08:27;101460.16;;;19.50;100.00
54808;BME280;40708;50.364;7.550;2023-07-28T07:10:53;101443.97;;;19.51;100.00
54808;BME280;40708;50.364;7.550;2023-07-28T07:13:18;101441.44;;;19.44;100.00
54808;BME280;40708;50.364;7.550;2023-07-28T07:15:44;101447.63;;;19.49;100.00
54808;BME280;40708;50.364;7.550;2023-07-28T07:18:09;101453.63;;;19.63;100.00
54808;BME280;40708;50.364;7.550;2023-07-28T07:20:35;101425.84;;;19.61;100.00
54808;BME280;40708;50.364;7.550;2023-07-28T07:23:01;101417.78;;;19.59;100.00
54808;BME280;40708;50.364;7.550;2023-07-28T07:25:26;101438.25;;;19.68;100.00
54808;BME280;40708;50.364;7.550;2023-07-28T07:27:51;101419.56;;;19.60;100.00
54808;BME280;40708;50.364;7.550;2023-07-28T07:30:17;101417.41;;;19.78;100.00
54808;BME280;40708;50.364;7.550;2023-07-28T07:32:42;101378.28;;;19.60;100.00
54808;BME280;40708;50.364;7.550;2023-07-28T07:35:08;101379.72;;;19.76;100.00
54808;BME280;40708;50.364;7.550;2023-07-28T07:37:33;101358.00;;;19.85;100.00
54808;BME280;40708;50.364;7.550;2023-07-28T07:39:59;101328.41;;;19.84;100.00
54808;BME280;40708;50.364;7.550;2023-07-28T07:42:28;101317.72;;;19.81;100.00
54808;BME280;40708;50.364;7.550;2023-07-28T07:45:05;101313.22;;;19.80;100.00
54808;BME280;40708;50.364;7.550;2023-07-28T07:47:30;101317.47;;;19.90;100.00
54808;BME280;40708;50.364;7.550;2023-07-28T07:49:55;101306.78;;;19.87;100.00
54808;BME280;40708;50.364;7.550;2023-07-28T07:52:21;101281.66;;;19.86;100.00
54808;BME280;40708;50.364;7.550;2023-07-28T07:54:46;101305.50;;;20.03;100.00
54808;BME280;40708;50.364;7.550;2023-07-28T07:57:11;101285.22;;;20.22;100.00
54808;BME280;40708;50.364;7.550;2023-07-28T07:59:36;101239.09;;;20.36;100.00
54808;BME280;40708;50.364;7.550;2023-07-28T08:02:02;101182.63;;;20.31;100.00
54808;BME280;40708;50.364;7.550;2023-07-28T08:04:28;101163.94;;;20.56;100.00
54808;BME280;40708;50.364;7.550;2023-07-28T08:06:53;101116.78;;;20.70;100.00
54808;BME280;40708;50.364;7.550;2023-07-28T08:09:19;101067.34;;;20.70;100.00
54808;BME280;40708;50.364;7.550;2023-07-28T08:11:44;101045.47;;;20.79;100.00
54808;BME280;40708;50.364;7.550;2023-07-28T08:14:09;101020.25;;;20.82;100.00
54808;BME280;40708;50.364;7.550;2023-07-28T08:16:35;101006.59;;;20.86;100.00
54808;BME280;40708;50.364;7.550;2023-07-28T08:19:00;100976.88;;;20.88;100.00
54808;BME280;40708;50.364;7.550;2023-07-28T08:21:25;100965.41;;;21.09;100.00
54808;BME280;40708;50.364;7.550;2023-07-28T08:23:50;100924.94;;;21.09;100.00
54808;BME280;40708;50.364;7.550;2023-07-28T08:26:16;100879.63;;;21.18;100.00
54808;BME280;40708;50.364;7.550;2023-07-28T08:28:41;100850.03;;;21.63;100.00
54808;BME280;40708;50.364;7.550;2023-07-28T08:31:06;100794.56;;;21.55;100.00
54808;BME280;40708;50.364;7.550;2023-07-28T08:33:32;100758.19;;;22.08;100.00
54808;BME280;40708;50.364;7.550;2023-07-28T08:35:57;100670.88;;;22.28;100.00
54808;BME280;40708;50.364;7.550;2023-07-28T08:38:23;100620.13;;;22.53;100.00
54808;BME280;40708;50.364;7.550;2023-07-28T08:40:48;100531.03;;;22.31;100.00
54808;BME280;40708;50.364;7.550;2023-07-28T08:43:14;100574.16;;;22.34;100.00
54808;BME280;40708;50.364;7.550;2023-07-28T08:45:39;100531.47;;;22.22;100.00
54808;BME280;40708;50.364;7.550;2023-07-28T08:48:05;100539.03;;;22.53;100.00
54808;BME280;40708;50.364;7.550;2023-07-28T08:50:30;100451.16;;;22.99;100.00
54808;BME280;40708;50.364;7.550;2023-07-28T08:52:56;100417.56;;;23.03;100.00
54808;BME280;40708;50.364;7.550;2023-07-28T08:55:22;100406.75;;;23.20;100.00
54808;BME280;40708;50.364;7.550;2023-07-28T08:57:48;100371.00;;;23.31;100.00
54808;BME280;40708;50.364;7.550;2023-07-28T09:00:13;100387.88;;;23.19;100.00
54808;BME280;40708;50.364;7.550;2023-07-28T09:02:42;100378.28;;;22.96;100.00
54808;BME280;40708;50.364;7.550;2023-07-28T09:05:16;100395.34;;;22.79;100.00
54808;BME280;40708;50.364;7.550;2023-07-28T09:07:42;100393.44;;;22.81;100.00
54808;BME280;40708;50.364;7.550;2023-07-28T09:10:08;100413.31;;;22.62;100.00
54808;BME280;40708;50.364;7.550;2023-07-28T09:12:33;100480.06;;;22.42;100.00
54808;BME280;40708;50.364;7.550;2023-07-28T09:14:59;100505.91;;;22.48;100.00
54808;BME280;40708;50.364;7.550;2023-07-28T09:17:24;100492.44;;;22.67;100.00
54808;BME280;40708;50.364;7.550;2023-07-28T09:19:53;100480.53;;;22.71;100.00
54808;BME280;40708;50.364;7.550;2023-07-28T09:22:20;100473.91;;;22.95;100.00
54808;BME280;40708;50.364;7.550;2023-07-28T09:24:45;100427.56;;;22.84;100.00
54808;BME280;40708;50.364;7.550;2023-07-28T09:27:25;100443.94;;;22.81;100.00
54808;BME280;40708;50.364;7.550;2023-07-28T09:29:52;100514.97;;;23.03;100.00
54808;BME280;40708;50.364;7.550;2023-07-28T09:32:27;100658.47;;;22.42;100.00
54808;BME280;40708;50.364;7.550;2023-07-28T09:35:11;100814.44;;;22.42;100.00
54808;BME280;40708;50.364;7.550;2023-07-28T09:37:42;100989.94;;;22.25;100.00
54808;BME280;40708;50.364;7.550;2023-07-28T09:40:09;101047.47;;;22.51;100.00
54808;BME280;40708;50.364;7.550;2023-07-28T09:42:39;100933.97;;;22.93;100.00
54808;BME280;40708;50.364;7.550;2023-07-28T09:45:05;100781.47;;;23.33;100.00
54808;BME280;40708;50.364;7.550;2023-07-28T09:47:33;100615.72;;;23.09;100.00
54808;BME280;40708;50.364;7.550;2023-07-28T09:50:02;100519.81;;;23.32;100.00
54808;BME280;40708;50.364;7.550;2023-07-28T09:52:33;100498.03;;;23.87;100.00
54808;BME280;40708;50.364;7.550;2023-07-28T09:55:00;100327.53;;;24.62;100.00
54808;BME280;40708;50.364;7.550;2023-07-28T09:57:31;100279.06;;;24.56;100.00
54808;BME280;40708;50.364;7.550;2023-07-28T10:00:00;100195.34;;;24.94;100.00
54808;BME280;40708;50.364;7.550;2023-07-28T10:02:27;100156.59;;;25.06;100.00
54808;BME280;40708;50.364;7.550;2023-07-28T10:04:53;100138.75;;;25.02;100.00
54808;BME280;40708;50.364;7.550;2023-07-28T10:07:20;100132.63;;;24.70;100.00
54808;BME280;40708;50.364;7.550;2023-07-28T10:09:46;100122.22;;;24.76;100.00
54808;BME280;40708;50.364;7.550;2023-07-28T10:12:24;100143.59;;;24.09;100.00
54808;BME280;40708;50.364;7.550;2023-07-28T10:15:00;100225.69;;;23.80;100.00
54808;BME280;40708;50.364;7.550;2023-07-28T10:17:35;100187.56;;;24.14;100.00
54808;BME280;40708;50.364;7.550;2023-07-28T10:20:27;100146.50;;;24.94;100.00
54808;BME280;40708;50.364;7.550;2023-07-28T10:22:53;100052.97;;;25.67;100.00
54808;BME280;40708;50.364;7.550;2023-07-28T10:25:25;99993.06;;;26.08;100.00
54808;BME280;40708;50.364;7.550;2023-07-28T10:27:51;99969.94;;;25.36;100.00
54808;BME280;40708;50.364;7.550;2023-07-28T10:30:16;99989.28;;;25.05;100.00
54808;BME280;40708;50.364;7.550;2023-07-28T10:32:43;100016.47;;;25.17;100.00
54808;BME280;40708;50.364;7.550;2023-07-28T10:37:37;99961.94;;;25.99;100.00
54808;BME280;40708;50.364;7.550;2023-07-28T10:40:28;99916.91;;;26.45;100.00
54808;BME280;40708;50.364;7.550;2023-07-28T10:42:55;99878.84;;;26.45;100.00
54808;BME280;40708;50.364;7.550;2023-07-28T10:45:29;99871.78;;;26.67;100.00
54808;BME280;40708;50.364;7.550;2023-07-28T10:47:57;99852.44;;;26.58;100.00
54808;BME280;40708;50.364;7.550;2023-07-28T10:50:26;99848.59;;;26.74;100.00
54808;BME280;40708;50.364;7.550;2023-07-28T10:52:52;99830.38;;;26.50;100.00
54808;BME280;40708;50.364;7.550;2023-07-28T10:55:23;99826.19;;;26.46;100.00
54808;BME280;40708;50.364;7.550;2023-07-28T10:57:50;99848.97;;;26.08;100.00
54808;BME280;40708;50.364;7.550;2023-07-28T11:00:18;99883.00;;;25.88;100.00
54808;BME280;40708;50.364;7.550;2023-07-28T11:02:47;99905.91;;;25.07;100.00
54808;BME280;40708;50.364;7.550;2023-07-28T11:05:24;99947.47;;;24.80;100.00
54808;BME280;40708;50.364;7.550;2023-07-28T11:07:57;99961.72;;;24.56;100.00
54808;BME280;40708;50.364;7.550;2023-07-28T11:10:22;99974.03;;;24.61;100.00
54808;BME280;40708;50.364;7.550;2023-07-28T11:12:49;99976.25;;;24.83;100.00
54808;BME280;40708;50.364;7.550;2023-07-28T11:15:17;99924.81;;;25.08;100.00
54808;BME280;40708;50.364;7.550;2023-07-28T11:17:45;99917.50;;;25.35;100.00
54808;BME280;40708;50.364;7.550;2023-07-28T11:20:18;99891.44;;;25.45;100.00
54808;BME280;40708;50.364;7.550;2023-07-28T11:22:44;99875.84;;;25.49;100.00
54808;BME280;40708;50.364;7.550;2023-07-28T11:25:11;99872.94;;;25.90;100.00
54808;BME280;40708;50.364;7.550;2023-07-28T11:27:37;99877.47;;;25.52;100.00
54808;BME280;40708;50.364;7.550;2023-07-28T11:30:04;99865.06;;;25.60;100.00
54808;BME280;40708;50.364;7.550;2023-07-28T11:32:37;99881.59;;;25.82;100.00
54808;BME280;40708;50.364;7.550;2023-07-28T11:35:07;99884.31;;;26.20;100.00
54808;BME280;40708;50.364;7.550;2023-07-28T11:37:34;99865.22;;;25.84;100.00
54808;BME280;40708;50.364;7.550;2023-07-28T11:40:01;99850.88;;;26.43;100.00
54808;BME280;40708;50.364;7.550;2023-07-28T11:42:28;99816.13;;;26.83;100.00
54808;BME280;40708;50.364;7.550;2023-07-28T11:44:54;99806.41;;;26.92;100.00
54808;BME280;40708;50.364;7.550;2023-07-28T11:47:20;99806.97;;;26.60;100.00
54808;BME280;40708;50.364;7.550;2023-07-28T11:49:47;99797.22;;;26.82;100.00
54808;BME280;40708;50.364;7.550;2023-07-28T11:52:12;99786.94;;;27.20;100.00
54808;BME280;40708;50.364;7.550;2023-07-28T11:54:38;99768.50;;;27.24;100.00
54808;BME280;40708;50.364;7.550;2023-07-28T11:57:03;99785.97;;;26.86;100.00
54808;BME280;40708;50.364;7.550;2023-07-28T11:59:28;99795.69;;;27.12;100.00
54808;BME280;40708;50.364;7.550;2023-07-28T12:01:59;99764.03;;;27.11;100.00
54808;BME280;40708;50.364;7.550;2023-07-28T12:04:37;99759.59;;;27.22;100.00
54808;BME280;40708;50.364;7.550;2023-07-28T12:09:47;99784.88;;;26.41;100.00
54808;BME280;40708;50.364;7.550;2023-07-28T12:12:23;99795.44;;;25.84;100.00
54808;BME280;40708;50.364;7.550;2023-07-28T12:14:49;99819.97;;;25.83;100.00
54808;BME280;40708;50.364;7.550;2023-07-28T12:17:22;99849.81;;;25.32;100.00
54808;BME280;40708;50.364;7.550;2023-07-28T12:20:08;99869.91;;;24.91;100.00
54808;BME280;40708;50.364;7.550;2023-07-28T12:22:44;99894.66;;;24.86;100.00
54808;BME280;40708;50.364;7.550;2023-07-28T12:25:10;99907.66;;;24.81;100.00
54808;BME280;40708;50.364;7.550;2023-07-28T12:27:36;99920.91;;;24.85;100.00
54808;BME280;40708;50.364;7.550;2023-07-28T12:30:02;99903.22;;;24.52;100.00
54808;BME280;40708;50.364;7.550;2023-07-28T12:32:28;99918.09;;;24.32;100.00
54808;BME280;40708;50.364;7.550;2023-07-28T12:34:53;99925.41;;;24.44;100.00
54808;BME280;40708;50.364;7.550;2023-07-28T12:37:19;99908.63;;;24.66;100.00
54808;BME280;40708;50.364;7.550;2023-07-28T12:39:44;99912.44;;;24.90;100.00
54808;BME280;40708;50.364;7.550;2023-07-28T12:42:10;99919.13;;;24.44;100.00
54808;BME280;40708;50.364;7.550;2023-07-28T12:44:39;99907.47;;;24.70;100.00
54808;BME280;40708;50.364;7.550;2023-07-28T12:47:05;99918.66;;;24.51;100.00
54808;BME280;40708;50.364;7.550;2023-07-28T12:49:30;99928.97;;;24.73;100.00